createdAt,value
2022-11-18T00:00:47.619Z,12.23
2022-11-18T00:01:47.633Z,12.22
2022-11-18T00:02:47.632Z,12.2
2022-11-18T00:03:47.632Z,12.19
2022-11-18T00:04:47.620Z,12.2
2022-11-18T00:05:47.634Z,12.2
2022-11-18T00:06:47.634Z,12.19
2022-11-18T00:07:47.634Z,12.19
2022-11-18T00:08:47.620Z,12.19
2022-11-18T00:09:47.634Z,12.19
2022-11-18T00:10:47.634Z,12.23
2022-11-18T00:11:47.634Z,12.26
2022-11-18T00:12:47.621Z,12.3
2022-11-18T00:13:47.635Z,12.29
2022-11-18T00:14:47.634Z,12.28
2022-11-18T00:15:47.622Z,12.27
2022-11-18T00:16:47.623Z,12.25
2022-11-18T00:17:47.635Z,12.24
2022-11-18T00:18:47.635Z,12.21
2022-11-18T00:19:47.623Z,12.2
2022-11-18T00:20:47.702Z,12.18
2022-11-18T00:21:47.636Z,12.16
2022-11-18T00:22:47.636Z,12.15
2022-11-18T00:23:47.624Z,12.15
2022-11-18T00:24:47.638Z,12.14
2022-11-18T00:25:47.638Z,12.14
2022-11-18T00:26:47.638Z,12.14
2022-11-18T00:27:47.624Z,12.13
2022-11-18T00:28:47.638Z,12.11
2022-11-18T00:29:47.639Z,12.09
2022-11-18T00:30:47.639Z,12.07
2022-11-18T00:31:47.625Z,12.05
2022-11-18T00:32:47.703Z,12.04
2022-11-18T00:33:50.638Z,12.03
2022-11-18T00:34:47.650Z,12.03
2022-11-18T00:35:47.626Z,12.04
2022-11-18T00:36:47.640Z,12.05
2022-11-18T00:37:47.639Z,12.07
2022-11-18T00:38:47.627Z,12.1
2022-11-18T00:39:47.628Z,12.13
2022-11-18T00:40:47.641Z,12.15
2022-11-18T00:41:47.641Z,12.18
2022-11-18T00:42:47.628Z,12.2
2022-11-18T00:43:47.642Z,12.21
2022-11-18T00:44:47.642Z,12.23
2022-11-18T00:45:47.641Z,12.27
2022-11-18T00:46:47.628Z,12.29
2022-11-18T00:47:47.642Z,12.3
2022-11-18T00:48:47.643Z,12.3
2022-11-18T00:49:47.642Z,12.31
2022-11-18T00:50:47.629Z,12.31
2022-11-18T00:51:47.643Z,12.32
2022-11-18T00:52:47.642Z,12.34
2022-11-18T00:53:47.630Z,12.36
2022-11-18T00:54:47.630Z,12.37
2022-11-18T00:55:47.644Z,12.37
2022-11-18T00:56:47.644Z,12.39
2022-11-18T00:57:47.631Z,12.39
2022-11-18T00:58:47.632Z,12.38
2022-11-18T00:59:47.645Z,12.36
2022-11-18T01:00:47.644Z,12.36
2022-11-18T01:01:47.632Z,12.35
2022-11-18T01:02:47.646Z,12.34
2022-11-18T01:03:47.646Z,12.33
2022-11-18T01:04:47.645Z,12.32
2022-11-18T01:05:47.632Z,12.33
2022-11-18T01:06:47.647Z,12.31
2022-11-18T01:07:47.646Z,12.3
2022-11-18T01:08:47.646Z,12.3
2022-11-18T01:09:47.633Z,12.3
2022-11-18T01:10:47.647Z,12.27
2022-11-18T01:11:47.648Z,12.25
2022-11-18T01:12:47.634Z,12.23
2022-11-18T01:13:47.634Z,12.2
2022-11-18T01:14:47.648Z,12.18
2022-11-18T01:15:47.648Z,12.18
2022-11-18T01:16:47.635Z,12.18
2022-11-18T01:17:47.635Z,12.15
2022-11-18T01:18:47.649Z,12.12
2022-11-18T01:19:47.649Z,12.11
2022-11-18T01:20:47.636Z,12.1
2022-11-18T01:21:47.650Z,12.09
2022-11-18T01:22:47.650Z,12.09
2022-11-18T01:23:47.650Z,12.1
2022-11-18T01:24:47.649Z,12.1
2022-11-18T01:25:47.651Z,12.09
2022-11-18T01:26:47.651Z,12.09
2022-11-18T01:27:47.650Z,12.1
2022-11-18T01:28:47.637Z,12.09
2022-11-18T01:29:47.651Z,12.08
2022-11-18T01:30:47.652Z,12.09
2022-11-18T01:31:47.638Z,12.1
2022-11-18T01:32:47.638Z,12.09
2022-11-18T01:33:55.887Z,12.08
2022-11-18T01:34:47.652Z,12.08
2022-11-18T01:35:47.639Z,12.1
2022-11-18T01:36:47.639Z,12.09
2022-11-18T01:37:47.653Z,12.08
2022-11-18T01:38:47.677Z,12.09
2022-11-18T01:39:47.640Z,12.1
2022-11-18T01:40:56.912Z,12.11
2022-11-18T01:41:47.654Z,12.13
2022-11-18T01:42:47.653Z,12.15
2022-11-18T01:43:55.875Z,12.18
2022-11-18T01:44:47.654Z,12.21
2022-11-18T01:45:47.654Z,12.25
2022-11-18T01:46:47.655Z,12.28
2022-11-18T01:47:47.641Z,12.31
2022-11-18T01:48:47.655Z,12.3
2022-11-18T01:49:47.656Z,12.28
2022-11-18T01:50:47.655Z,12.28
2022-11-18T01:51:47.643Z,12.29
2022-11-18T01:52:47.656Z,12.29
2022-11-18T01:53:47.656Z,12.3
2022-11-18T01:54:47.643Z,12.31
2022-11-18T01:55:47.643Z,12.32
2022-11-18T01:56:47.657Z,12.3
2022-11-18T01:57:47.657Z,12.3
2022-11-18T01:58:47.644Z,12.32
2022-11-18T01:59:47.644Z,12.33
2022-11-18T02:00:47.658Z,12.34
2022-11-18T02:01:47.657Z,12.36
2022-11-18T02:02:47.645Z,12.36
2022-11-18T02:03:47.659Z,12.32
2022-11-18T02:04:47.659Z,12.27
2022-11-18T02:05:47.658Z,12.23
2022-11-18T02:06:47.646Z,12.19
2022-11-18T02:07:47.659Z,12.14
2022-11-18T02:08:47.659Z,12.1
2022-11-18T02:09:47.659Z,12.09
2022-11-18T02:10:47.646Z,12.1
2022-11-18T02:11:47.660Z,12.11
2022-11-18T02:12:47.660Z,12.13
2022-11-18T02:13:47.647Z,12.16
2022-11-18T02:14:47.647Z,12.2
2022-11-18T02:15:47.661Z,12.22
2022-11-18T02:16:47.661Z,12.24
2022-11-18T02:17:47.648Z,12.28
2022-11-18T02:18:47.727Z,12.3
2022-11-18T02:19:47.662Z,12.31
2022-11-18T02:20:47.662Z,12.28
2022-11-18T02:21:47.649Z,12.23
2022-11-18T02:22:47.663Z,12.16
2022-11-18T02:23:47.663Z,12.12
2022-11-18T02:24:47.662Z,12.08
2022-11-18T02:25:47.650Z,12.07
2022-11-18T02:26:47.664Z,12.06
2022-11-18T02:27:47.664Z,12.04
2022-11-18T02:28:47.664Z,12.05
2022-11-18T02:29:47.651Z,12.04
2022-11-18T02:30:47.712Z,12.02
2022-11-18T02:31:47.664Z,12
2022-11-18T02:32:47.651Z,11.99
2022-11-18T02:33:47.652Z,11.97
2022-11-18T02:34:47.664Z,11.97
2022-11-18T02:35:47.664Z,11.99
2022-11-18T02:36:47.652Z,12.02
2022-11-18T02:37:47.666Z,12.05
2022-11-18T02:38:47.666Z,12.06
2022-11-18T02:39:47.665Z,12.1
2022-11-18T02:40:47.653Z,12.14
2022-11-18T02:41:47.666Z,12.16
2022-11-18T02:42:47.667Z,12.17
2022-11-18T02:43:47.667Z,12.18
2022-11-18T02:44:47.654Z,12.19
2022-11-18T02:45:47.667Z,12.19
2022-11-18T02:46:47.667Z,12.21
2022-11-18T02:47:47.667Z,12.25
2022-11-18T02:48:47.654Z,12.29
2022-11-18T02:49:47.668Z,12.32
2022-11-18T02:50:47.667Z,12.37
2022-11-18T02:51:47.655Z,12.41
2022-11-18T02:52:47.655Z,12.42
2022-11-18T02:53:47.669Z,12.44
2022-11-18T02:54:47.668Z,12.45
2022-11-18T02:55:47.656Z,12.47
2022-11-18T02:56:47.657Z,12.51
2022-11-18T02:57:47.670Z,12.53
2022-11-18T02:58:47.669Z,12.56
2022-11-18T02:59:47.657Z,12.56
2022-11-18T03:00:47.671Z,12.55
2022-11-18T03:01:47.671Z,12.55
2022-11-18T03:02:47.670Z,12.58
2022-11-18T03:03:47.658Z,12.62
2022-11-18T03:04:47.672Z,12.63
2022-11-18T03:05:47.672Z,12.61
2022-11-18T03:06:47.672Z,12.6
2022-11-18T03:07:47.658Z,12.56
2022-11-18T03:08:47.672Z,12.52
2022-11-18T03:09:47.673Z,12.49
2022-11-18T03:10:47.672Z,12.47
2022-11-18T03:11:47.659Z,12.46
2022-11-18T03:12:47.672Z,12.46
2022-11-18T03:13:47.672Z,12.47
2022-11-18T03:14:47.660Z,12.48
2022-11-18T03:15:47.660Z,12.51
2022-11-18T03:16:47.674Z,12.54
2022-11-18T03:17:47.674Z,12.58
2022-11-18T03:18:47.661Z,12.62
2022-11-18T03:19:47.675Z,12.66
2022-11-18T03:20:47.675Z,12.7
2022-11-18T03:21:47.674Z,12.73
2022-11-18T03:22:47.662Z,12.77
2022-11-18T03:23:47.676Z,12.77
2022-11-18T03:24:47.678Z,12.78
2022-11-18T03:25:47.675Z,12.78
2022-11-18T03:26:47.663Z,12.76
2022-11-18T03:27:47.677Z,12.73
2022-11-18T03:28:47.676Z,12.71
2022-11-18T03:29:47.676Z,12.7
2022-11-18T03:30:47.663Z,12.67
2022-11-18T03:31:47.677Z,12.63
2022-11-18T03:32:47.676Z,12.61
2022-11-18T03:33:47.664Z,12.6
2022-11-18T03:34:47.664Z,12.57
2022-11-18T03:35:47.678Z,12.55
2022-11-18T03:36:47.685Z,12.54
2022-11-18T03:37:47.665Z,12.53
2022-11-18T03:38:47.679Z,12.52
2022-11-18T03:39:47.679Z,12.51
2022-11-18T03:40:47.678Z,12.5
2022-11-18T03:41:47.666Z,12.48
2022-11-18T03:42:47.680Z,12.46
2022-11-18T03:43:47.679Z,12.45
2022-11-18T03:44:47.680Z,12.42
2022-11-18T03:45:47.668Z,12.39
2022-11-18T03:46:47.681Z,12.36
2022-11-18T03:47:47.682Z,12.36
2022-11-18T03:48:47.667Z,12.38
2022-11-18T03:49:47.668Z,12.4
2022-11-18T03:50:47.681Z,12.39
2022-11-18T03:51:47.682Z,12.39
2022-11-18T03:52:47.668Z,12.38
2022-11-18T03:53:47.669Z,12.37
2022-11-18T03:54:47.682Z,12.35
2022-11-18T03:55:47.681Z,12.34
2022-11-18T03:56:47.669Z,12.35
2022-11-18T03:57:47.683Z,12.34
2022-11-18T03:58:47.683Z,12.34
2022-11-18T03:59:47.683Z,12.35
2022-11-18T04:00:47.670Z,12.38
2022-11-18T04:01:47.684Z,12.38
2022-11-18T04:02:47.684Z,12.37
2022-11-18T04:03:47.683Z,12.35
2022-11-18T04:04:47.671Z,12.35
2022-11-18T04:05:47.684Z,12.33
2022-11-18T04:06:47.684Z,12.32
2022-11-18T04:07:47.685Z,12.32
2022-11-18T04:08:47.672Z,12.32
2022-11-18T04:09:47.686Z,12.31
2022-11-18T04:10:47.685Z,12.3
2022-11-18T04:11:47.672Z,12.29
2022-11-18T04:12:47.673Z,12.28
2022-11-18T04:13:47.686Z,12.28
2022-11-18T04:14:47.687Z,12.31
2022-11-18T04:15:47.673Z,12.34
2022-11-18T04:16:47.687Z,12.37
2022-11-18T04:17:47.687Z,12.39
2022-11-18T04:18:47.687Z,12.42
2022-11-18T04:19:47.674Z,12.43
2022-11-18T04:20:47.688Z,12.43
2022-11-18T04:21:47.688Z,12.43
2022-11-18T04:22:47.688Z,12.44
2022-11-18T04:23:47.675Z,12.43
2022-11-18T04:24:47.689Z,12.42
2022-11-18T04:25:47.689Z,12.41
2022-11-18T04:26:47.675Z,12.38
2022-11-18T04:27:47.676Z,12.36
2022-11-18T04:28:47.689Z,12.34
2022-11-18T04:29:47.690Z,12.35
2022-11-18T04:30:47.676Z,12.37
2022-11-18T04:31:47.677Z,12.36
2022-11-18T04:32:47.689Z,12.35
2022-11-18T04:33:47.691Z,12.35
2022-11-18T04:34:47.677Z,12.34
2022-11-18T04:35:47.691Z,12.32
2022-11-18T04:36:47.691Z,12.3
2022-11-18T04:37:47.690Z,12.3
2022-11-18T04:38:47.679Z,12.3
2022-11-18T04:39:47.692Z,12.31
2022-11-18T04:40:47.691Z,12.32
2022-11-18T04:41:47.692Z,12.33
2022-11-18T04:42:47.679Z,12.34
2022-11-18T04:43:47.757Z,12.34
2022-11-18T04:44:47.693Z,12.33
2022-11-18T04:45:47.679Z,12.31
2022-11-18T04:46:47.681Z,12.28
2022-11-18T04:47:47.694Z,12.25
2022-11-18T04:48:47.694Z,12.25
2022-11-18T04:49:47.680Z,12.25
2022-11-18T04:50:47.694Z,12.22
2022-11-18T04:51:47.694Z,12.19
2022-11-18T04:52:47.694Z,12.17
2022-11-18T04:53:47.681Z,12.16
2022-11-18T04:54:47.695Z,12.13
2022-11-18T04:55:47.694Z,12.1
2022-11-18T04:56:47.696Z,12.09
2022-11-18T04:57:47.682Z,12.09
2022-11-18T04:58:47.696Z,12.08
2022-11-18T04:59:47.695Z,12.07
2022-11-18T05:00:47.696Z,12.09
2022-11-18T05:01:47.684Z,12.09
2022-11-18T05:02:47.697Z,12.08
2022-11-18T05:03:47.696Z,12.06
2022-11-18T05:04:47.683Z,12.06
2022-11-18T05:05:47.684Z,12.05
2022-11-18T05:06:47.698Z,12.03
2022-11-18T05:07:47.697Z,12.03
2022-11-18T05:08:47.684Z,12.03
2022-11-18T05:09:47.685Z,12.01
2022-11-18T05:10:47.698Z,11.98
2022-11-18T05:11:47.698Z,11.97
2022-11-18T05:12:47.685Z,11.96
2022-11-18T05:13:47.699Z,11.93
2022-11-18T05:14:47.699Z,11.92
2022-11-18T05:15:47.699Z,11.92
2022-11-18T05:16:47.699Z,11.89
2022-11-18T05:17:47.699Z,11.85
2022-11-18T05:18:47.700Z,11.83
2022-11-18T05:19:47.700Z,11.8
2022-11-18T05:20:47.688Z,11.76
2022-11-18T05:21:47.701Z,11.72
2022-11-18T05:22:47.700Z,11.71
2022-11-18T05:23:47.687Z,11.73
2022-11-18T05:24:47.688Z,11.76
2022-11-18T05:25:47.701Z,11.78
2022-11-18T05:26:47.702Z,11.79
2022-11-18T05:27:47.688Z,11.79
2022-11-18T05:28:47.751Z,11.78
2022-11-18T05:29:47.702Z,11.77
2022-11-18T05:30:47.702Z,11.77
2022-11-18T05:31:47.689Z,11.77
2022-11-18T05:32:47.703Z,11.76
2022-11-18T05:33:47.703Z,11.75
2022-11-18T05:34:47.703Z,11.74
2022-11-18T05:35:47.690Z,11.73
2022-11-18T05:36:47.704Z,11.72
2022-11-18T05:37:47.703Z,11.72
2022-11-18T05:38:47.703Z,11.7
2022-11-18T05:39:47.692Z,11.66
2022-11-18T05:40:47.705Z,11.62
2022-11-18T05:41:47.704Z,11.58
2022-11-18T05:42:47.691Z,11.57
2022-11-18T05:43:47.693Z,11.55
2022-11-18T05:44:47.704Z,11.56
2022-11-18T05:45:47.706Z,11.57
2022-11-18T05:46:47.692Z,11.58
2022-11-18T05:47:47.706Z,11.57
2022-11-18T05:48:47.706Z,11.57
2022-11-18T05:49:47.705Z,11.55
2022-11-18T05:50:47.693Z,11.55
2022-11-18T05:51:47.707Z,11.55
2022-11-18T05:52:47.706Z,11.53
2022-11-18T05:53:47.707Z,11.5
2022-11-18T05:54:47.694Z,11.45
2022-11-18T05:55:47.708Z,11.4
2022-11-18T05:56:47.708Z,11.38
2022-11-18T05:57:47.707Z,11.35
2022-11-18T05:58:47.696Z,11.3
2022-11-18T05:59:47.717Z,11.23
2022-11-18T06:00:47.709Z,11.2
2022-11-18T06:01:47.695Z,11.2
2022-11-18T06:02:47.695Z,11.2
2022-11-18T06:03:47.708Z,11.19
2022-11-18T06:04:47.709Z,11.21
2022-11-18T06:05:47.696Z,11.2
2022-11-18T06:06:47.710Z,11.19
2022-11-18T06:07:47.710Z,11.17
2022-11-18T06:08:47.709Z,11.16
2022-11-18T06:09:47.697Z,11.15
2022-11-18T06:10:47.711Z,11.12
2022-11-18T06:11:47.763Z,11.1
2022-11-18T06:12:47.710Z,11.08
2022-11-18T06:13:47.698Z,11.09
2022-11-18T06:14:47.711Z,11.08
2022-11-18T06:15:47.711Z,11.08
2022-11-18T06:16:47.711Z,11.09
2022-11-18T06:17:47.698Z,11.1
2022-11-18T06:18:47.712Z,11.09
2022-11-18T06:19:47.712Z,11.07
2022-11-18T06:20:47.699Z,11.09
2022-11-18T06:21:47.699Z,11.07
2022-11-18T06:22:47.712Z,11.05
2022-11-18T06:23:47.713Z,11.07
2022-11-18T06:24:47.700Z,11.08
2022-11-18T06:25:47.714Z,11.09
2022-11-18T06:26:47.714Z,11.08
2022-11-18T06:27:47.714Z,11.07
2022-11-18T06:28:47.700Z,11.06
2022-11-18T06:29:47.714Z,11.04
2022-11-18T06:30:47.714Z,11.03
2022-11-18T06:31:47.714Z,11.04
2022-11-18T06:32:47.701Z,11.05
2022-11-18T06:33:47.715Z,11.03
2022-11-18T06:34:47.715Z,11.03
2022-11-18T06:35:47.715Z,11.02
2022-11-18T06:36:47.702Z,11
2022-11-18T06:37:47.716Z,10.97
2022-11-18T06:38:47.716Z,10.97
2022-11-18T06:39:47.702Z,10.97
2022-11-18T06:40:47.703Z,10.96
2022-11-18T06:41:47.717Z,10.95
2022-11-18T06:42:47.716Z,10.98
2022-11-18T06:43:47.703Z,10.99
2022-11-18T06:44:47.717Z,11
2022-11-18T06:45:47.716Z,10.99
2022-11-18T06:46:47.718Z,11.01
2022-11-18T06:47:47.704Z,11.03
2022-11-18T06:48:47.718Z,11.04
2022-11-18T06:49:47.717Z,11.03
2022-11-18T06:50:47.718Z,11.03
2022-11-18T06:51:47.706Z,11.03
2022-11-18T06:52:47.719Z,11.03
2022-11-18T06:53:47.719Z,11.04
2022-11-18T06:54:47.871Z,11.06
2022-11-18T06:55:47.706Z,11.08
2022-11-18T06:56:47.785Z,11.09
2022-11-18T06:58:47.706Z,11.12
2022-11-18T06:59:47.706Z,11.13
2022-11-18T07:00:47.720Z,11.13
2022-11-18T07:01:47.720Z,11.13
2022-11-18T07:02:47.707Z,11.11
2022-11-18T07:03:47.770Z,11.09
2022-11-18T07:04:47.721Z,11.06
2022-11-18T07:05:47.720Z,11.06
2022-11-18T07:06:47.708Z,11.08
2022-11-18T07:07:47.722Z,11.06
2022-11-18T07:08:47.722Z,11.05
2022-11-18T07:09:47.722Z,11.04
2022-11-18T07:10:47.709Z,11.02
2022-11-18T07:11:47.722Z,11
2022-11-18T07:12:47.721Z,11
2022-11-18T07:13:47.722Z,11.01
2022-11-18T07:14:47.709Z,11.02
2022-11-18T07:15:47.723Z,11.01
2022-11-18T07:16:47.723Z,11.01
2022-11-18T07:17:47.710Z,11.01
2022-11-18T07:18:47.710Z,11.02
2022-11-18T07:19:47.724Z,11.03
2022-11-18T07:20:47.724Z,11.04
2022-11-18T07:21:47.710Z,11.06
2022-11-18T07:22:47.724Z,11.07
2022-11-18T07:23:47.725Z,11.06
2022-11-18T07:24:47.725Z,11.05
2022-11-18T07:25:47.711Z,11.05
2022-11-18T07:26:47.725Z,11.04
2022-11-18T07:27:47.725Z,11.01
2022-11-18T07:28:47.724Z,11.01
2022-11-18T07:29:47.712Z,11.03
2022-11-18T07:30:47.726Z,11.03
2022-11-18T07:31:47.726Z,11.05
2022-11-18T07:32:47.725Z,11.05
2022-11-18T07:33:47.713Z,11.03
2022-11-18T07:34:47.726Z,11.01
2022-11-18T07:35:47.726Z,10.99
2022-11-18T07:36:47.713Z,10.98
2022-11-18T07:37:47.714Z,10.97
2022-11-18T07:38:47.726Z,10.95
2022-11-18T07:39:47.728Z,10.94
2022-11-18T07:40:47.714Z,10.95
2022-11-18T07:41:47.728Z,10.95
2022-11-18T07:42:47.727Z,10.94
2022-11-18T07:43:47.727Z,10.93
2022-11-18T07:44:47.727Z,10.93
2022-11-18T07:45:47.729Z,10.93
2022-11-18T07:46:47.729Z,10.94
2022-11-18T07:47:47.728Z,10.94
2022-11-18T07:48:47.716Z,10.94
2022-11-18T07:49:47.729Z,10.94
2022-11-18T07:50:47.729Z,10.97
2022-11-18T07:51:47.716Z,11
2022-11-18T07:52:47.716Z,11.01
2022-11-18T07:53:47.730Z,11.02
2022-11-18T07:54:53.871Z,11.03
2022-11-18T07:55:47.717Z,11.05
2022-11-18T07:56:47.717Z,11.04
2022-11-18T07:57:47.731Z,11.05
2022-11-18T07:58:47.731Z,11.08
2022-11-18T07:59:47.718Z,11.1
2022-11-18T08:00:47.732Z,11.11
2022-11-18T08:01:47.732Z,11.11
2022-11-18T08:02:47.732Z,11.11
2022-11-18T08:03:47.719Z,11.11
2022-11-18T08:04:47.732Z,11.1
2022-11-18T08:05:47.774Z,11.09
2022-11-18T08:06:47.732Z,11.1
2022-11-18T08:07:47.719Z,11.12
2022-11-18T08:08:47.733Z,11.13
2022-11-18T08:09:47.733Z,11.17
2022-11-18T08:10:47.733Z,11.21
2022-11-18T08:11:47.720Z,11.24
2022-11-18T08:12:47.734Z,11.26
2022-11-18T08:13:47.735Z,11.28
2022-11-18T08:14:47.720Z,11.31
2022-11-18T08:15:47.721Z,11.33
2022-11-18T08:16:47.735Z,11.34
2022-11-18T08:17:47.736Z,11.35
2022-11-18T08:18:47.721Z,11.38
2022-11-18T08:19:47.735Z,11.4
2022-11-18T08:20:47.735Z,11.42
2022-11-18T08:21:47.735Z,11.45
2022-11-18T08:22:47.722Z,11.49
2022-11-18T08:23:47.736Z,11.51
2022-11-18T08:24:47.735Z,11.51
2022-11-18T08:25:47.735Z,11.53
2022-11-18T08:26:47.723Z,11.55
2022-11-18T08:27:47.737Z,11.58
2022-11-18T08:28:47.736Z,11.59
2022-11-18T08:29:47.736Z,11.6
2022-11-18T08:30:47.724Z,11.62
2022-11-18T08:31:47.736Z,11.62
2022-11-18T08:32:47.738Z,11.6
2022-11-18T08:33:47.724Z,11.6
2022-11-18T08:34:47.725Z,11.61
2022-11-18T08:35:47.737Z,11.62
2022-11-18T08:36:47.802Z,11.67
2022-11-18T08:37:47.725Z,11.72
2022-11-18T08:38:47.739Z,11.76
2022-11-18T08:39:47.738Z,11.8
2022-11-18T08:40:47.739Z,11.81
2022-11-18T08:41:47.726Z,11.84
2022-11-18T08:42:47.740Z,11.88
2022-11-18T08:43:47.740Z,11.9
2022-11-18T08:44:47.739Z,11.9
2022-11-18T08:45:47.726Z,11.85
2022-11-18T08:46:47.740Z,11.81
2022-11-18T08:47:47.741Z,11.79
2022-11-18T08:48:47.757Z,11.81
2022-11-18T08:49:47.728Z,11.82
2022-11-18T08:50:47.741Z,11.85
2022-11-18T08:51:47.741Z,11.87
2022-11-18T08:52:47.728Z,11.88
2022-11-18T08:53:47.729Z,11.89
2022-11-18T08:54:51.695Z,11.86
2022-11-18T08:55:47.741Z,11.84
2022-11-18T08:56:47.729Z,11.86
2022-11-18T08:57:47.767Z,11.9
2022-11-18T08:58:47.743Z,11.93
2022-11-18T08:59:47.742Z,11.97
2022-11-18T09:00:47.729Z,12.01
2022-11-18T09:01:47.743Z,11.99
2022-11-18T09:02:47.744Z,11.97
2022-11-18T09:03:47.744Z,11.96
2022-11-18T09:04:47.730Z,11.96
2022-11-18T09:05:47.744Z,11.95
2022-11-18T09:06:47.743Z,11.95
2022-11-18T09:07:47.744Z,11.98
2022-11-18T09:08:47.731Z,12.02
2022-11-18T09:09:47.793Z,12.04
2022-11-18T09:10:47.744Z,12.08
2022-11-18T09:11:47.732Z,12.11
2022-11-18T09:12:47.732Z,12.12
2022-11-18T09:13:47.745Z,12.12
2022-11-18T09:14:47.746Z,12.13
2022-11-18T09:15:47.732Z,12.17
2022-11-18T09:16:47.746Z,12.18
2022-11-18T09:17:47.747Z,12.17
2022-11-18T09:18:47.747Z,12.16
2022-11-18T09:19:47.733Z,12.13
2022-11-18T09:20:47.747Z,12.07
2022-11-18T09:21:47.772Z,12.03
2022-11-18T09:22:47.747Z,12.01
2022-11-18T09:23:47.735Z,11.99
2022-11-18T09:24:47.748Z,11.97
2022-11-18T09:25:47.748Z,11.95
2022-11-18T09:26:47.748Z,11.95
2022-11-18T09:27:47.736Z,11.94
2022-11-18T09:28:47.749Z,11.93
2022-11-18T09:29:47.748Z,11.92
2022-11-18T09:30:47.735Z,11.95
2022-11-18T09:31:47.737Z,11.99
2022-11-18T09:32:47.749Z,12.05
2022-11-18T09:33:47.758Z,12.12
2022-11-18T09:34:47.736Z,12.18
2022-11-18T09:35:47.750Z,12.22
2022-11-18T09:36:47.750Z,12.24
2022-11-18T09:37:47.749Z,12.26
2022-11-18T09:38:47.737Z,12.26
2022-11-18T09:39:47.751Z,12.28
2022-11-18T09:40:47.751Z,12.32
2022-11-18T09:41:47.750Z,12.36
2022-11-18T09:42:47.739Z,12.38
2022-11-18T09:43:47.752Z,12.37
2022-11-18T09:44:47.752Z,12.36
2022-11-18T09:45:47.738Z,12.34
2022-11-18T09:46:47.740Z,12.33
2022-11-18T09:47:47.753Z,12.3
2022-11-18T09:48:47.752Z,12.27
2022-11-18T09:49:47.739Z,12.27
2022-11-18T09:50:47.740Z,12.27
2022-11-18T09:51:47.753Z,12.26
2022-11-18T09:52:47.752Z,12.26
2022-11-18T09:53:47.740Z,12.26
2022-11-18T09:54:55.989Z,12.25
2022-11-18T09:55:47.753Z,12.25
2022-11-18T09:56:47.753Z,12.28
2022-11-18T09:57:47.741Z,12.29
2022-11-18T09:58:47.755Z,12.28
2022-11-18T09:59:47.755Z,12.28
2022-11-18T10:00:47.754Z,12.31
2022-11-18T10:01:47.743Z,12.28
2022-11-18T10:02:47.756Z,12.19
2022-11-18T10:03:47.756Z,12.1
2022-11-18T10:04:55.990Z,12.04
2022-11-18T10:05:47.743Z,11.99
2022-11-18T10:06:47.756Z,11.99
2022-11-18T10:07:47.755Z,12.02
2022-11-18T10:08:47.743Z,12.07
2022-11-18T10:09:47.743Z,12.1
2022-11-18T10:10:47.756Z,12.08
2022-11-18T10:11:47.757Z,12.07
2022-11-18T10:12:47.744Z,12.06
2022-11-18T10:13:47.744Z,12.05
2022-11-18T10:14:47.758Z,12.06
2022-11-18T10:15:47.757Z,12.07
2022-11-18T10:16:47.745Z,12.07
2022-11-18T10:17:47.759Z,12.03
2022-11-18T10:18:47.759Z,11.95
2022-11-18T10:19:47.758Z,11.89
2022-11-18T10:20:47.745Z,11.88
2022-11-18T10:21:47.759Z,11.88
2022-11-18T10:22:47.760Z,11.88
2022-11-18T10:23:47.759Z,11.9
2022-11-18T10:24:47.746Z,11.91
2022-11-18T10:25:47.759Z,11.92
2022-11-18T10:26:47.759Z,11.92
2022-11-18T10:27:47.747Z,11.92
2022-11-18T10:28:47.747Z,11.95
2022-11-18T10:29:47.761Z,12
2022-11-18T10:30:47.760Z,12.06
2022-11-18T10:31:47.748Z,12.08
2022-11-18T10:32:47.748Z,12.05
2022-11-18T10:33:47.761Z,11.99
2022-11-18T10:34:47.761Z,11.97
2022-11-18T10:35:47.748Z,12
2022-11-18T10:36:47.761Z,12.04
2022-11-18T10:37:47.763Z,12.07
2022-11-18T10:38:47.763Z,12.1
2022-11-18T10:39:47.749Z,12.09
2022-11-18T10:40:47.763Z,12.05
2022-11-18T10:41:47.763Z,12.04
2022-11-18T10:42:47.764Z,12.03
2022-11-18T10:43:47.750Z,12.03
2022-11-18T10:44:47.787Z,12.04
2022-11-18T10:45:47.764Z,12.08
2022-11-18T10:46:47.751Z,12.13
2022-11-18T10:47:47.752Z,12.16
2022-11-18T10:48:47.764Z,12.19
2022-11-18T10:49:47.764Z,12.2
2022-11-18T10:50:47.751Z,12.2
2022-11-18T10:51:47.765Z,12.17
2022-11-18T10:52:47.766Z,12.13
2022-11-18T10:53:47.766Z,12.12
2022-11-18T10:54:47.752Z,12.12
2022-11-18T10:55:47.766Z,12.13
2022-11-18T10:56:47.791Z,12.15
2022-11-18T10:57:47.767Z,12.17
2022-11-18T10:58:47.753Z,12.18
2022-11-18T10:59:47.766Z,12.15
2022-11-18T11:00:47.766Z,12.1
2022-11-18T11:01:47.766Z,12.07
2022-11-18T11:02:47.755Z,12.06
2022-11-18T11:03:47.768Z,12.07
2022-11-18T11:04:47.767Z,12.1
2022-11-18T11:05:47.754Z,12.13
2022-11-18T11:06:47.755Z,12.17
2022-11-18T11:07:47.768Z,12.22
2022-11-18T11:08:47.769Z,12.26
2022-11-18T11:09:47.755Z,12.28
2022-11-18T11:10:47.769Z,12.31
2022-11-18T11:11:47.769Z,12.35
2022-11-18T11:12:47.770Z,12.37
2022-11-18T11:13:47.756Z,12.4
2022-11-18T11:14:47.769Z,12.44
2022-11-18T11:15:47.770Z,12.48
2022-11-18T11:16:47.770Z,12.54
2022-11-18T11:17:47.757Z,12.58
2022-11-18T11:18:47.771Z,12.55
2022-11-18T11:19:47.770Z,12.48
2022-11-18T11:20:47.770Z,12.42
2022-11-18T11:21:47.759Z,12.36
2022-11-18T11:22:47.772Z,12.33
2022-11-18T11:23:47.771Z,12.36
2022-11-18T11:24:47.759Z,12.44
2022-11-18T11:25:47.759Z,12.52
2022-11-18T11:26:47.773Z,12.59
2022-11-18T11:27:47.773Z,12.66
2022-11-18T11:28:47.759Z,12.71
2022-11-18T11:29:47.759Z,12.74
2022-11-18T11:30:47.773Z,12.72
2022-11-18T11:31:47.773Z,12.71
2022-11-18T11:32:47.760Z,12.72
2022-11-18T11:33:47.774Z,12.75
2022-11-18T11:34:47.774Z,12.78
2022-11-18T11:35:47.773Z,12.81
2022-11-18T11:36:47.761Z,12.82
2022-11-18T11:37:47.775Z,12.78
2022-11-18T11:38:47.777Z,12.73
2022-11-18T11:39:47.775Z,12.72
2022-11-18T11:40:47.762Z,12.73
2022-11-18T11:41:47.776Z,12.75
2022-11-18T11:42:47.775Z,12.79
2022-11-18T11:43:47.776Z,12.85
2022-11-18T11:44:47.763Z,12.9
2022-11-18T11:45:47.775Z,12.89
2022-11-18T11:46:47.778Z,12.84
2022-11-18T11:47:47.763Z,12.8
2022-11-18T11:48:47.764Z,12.76
2022-11-18T11:49:47.777Z,12.7
2022-11-18T11:50:47.776Z,12.67
2022-11-18T11:51:47.764Z,12.68
2022-11-18T11:52:47.778Z,12.7
2022-11-18T11:53:47.778Z,12.71
2022-11-18T11:54:47.777Z,12.71
2022-11-18T11:55:47.765Z,12.69
2022-11-18T11:56:47.779Z,12.66
2022-11-18T11:57:47.778Z,12.63
2022-11-18T11:58:47.778Z,12.6
2022-11-18T11:59:47.767Z,12.59
2022-11-18T12:00:47.780Z,12.55
2022-11-18T12:01:47.779Z,12.52
2022-11-18T12:02:47.767Z,12.48
2022-11-18T12:03:47.767Z,12.46
2022-11-18T12:04:47.780Z,12.41
2022-11-18T12:05:47.780Z,12.36
2022-11-18T12:06:47.767Z,12.33
2022-11-18T12:07:47.767Z,12.29
2022-11-18T12:08:47.780Z,12.28
2022-11-18T12:09:47.781Z,12.3
2022-11-18T12:10:47.768Z,12.31
2022-11-18T12:11:47.782Z,12.32
2022-11-18T12:12:47.782Z,12.31
2022-11-18T12:13:47.781Z,12.32
2022-11-18T12:14:47.781Z,12.31
2022-11-18T12:15:47.783Z,12.27
2022-11-18T12:16:47.783Z,12.22
2022-11-18T12:17:47.783Z,12.22
2022-11-18T12:18:47.771Z,12.23
2022-11-18T12:19:47.784Z,12.23
2022-11-18T12:20:47.785Z,12.24
2022-11-18T12:21:47.770Z,12.26
2022-11-18T12:22:47.770Z,12.27
2022-11-18T12:23:47.783Z,12.29
2022-11-18T12:24:47.784Z,12.33
2022-11-18T12:25:47.771Z,12.37
2022-11-18T12:26:47.772Z,12.38
2022-11-18T12:27:47.785Z,12.4
2022-11-18T12:28:47.785Z,12.44
2022-11-18T12:29:47.772Z,12.5
2022-11-18T12:30:47.786Z,12.53
2022-11-18T12:31:47.786Z,12.54
2022-11-18T12:32:47.785Z,12.56
2022-11-18T12:33:47.785Z,12.59
2022-11-18T12:34:47.787Z,12.61
2022-11-18T12:35:47.786Z,12.63
2022-11-18T12:36:47.786Z,12.65
2022-11-18T12:37:47.774Z,12.66
2022-11-18T12:38:47.787Z,12.65
2022-11-18T12:39:47.788Z,12.64
2022-11-18T12:40:47.774Z,12.65
2022-11-18T12:41:47.775Z,12.65
2022-11-18T12:42:47.788Z,12.67
2022-11-18T12:43:47.787Z,12.69
2022-11-18T12:44:47.775Z,12.72
2022-11-18T12:45:47.813Z,12.74
2022-11-18T12:46:47.788Z,12.75
2022-11-18T12:47:47.788Z,12.75
2022-11-18T12:48:47.776Z,12.75
2022-11-18T12:49:47.790Z,12.75
2022-11-18T12:50:47.789Z,12.75
2022-11-18T12:51:47.790Z,12.76
2022-11-18T12:52:47.778Z,12.76
2022-11-18T12:53:47.791Z,12.75
2022-11-18T12:54:47.791Z,12.73
2022-11-18T12:55:47.791Z,12.72
2022-11-18T12:56:47.777Z,12.71
2022-11-18T12:57:47.815Z,12.69